createdAt,value
2022-10-24T00:03:40.859Z,1.65
2022-10-24T00:08:30.597Z,0.98
2022-10-24T00:13:21.348Z,0.80
2022-10-24T00:18:13.620Z,0.70
2022-10-24T00:23:03.203Z,0.75
2022-10-24T00:27:52.990Z,0.83
2022-10-24T00:32:42.912Z,0.70
2022-10-24T00:37:35.684Z,0.60
2022-10-24T00:42:25.794Z,0.77
2022-10-24T00:47:20.265Z,0.47
2022-10-24T00:52:12.443Z,0.50
2022-10-24T00:57:09.295Z,0.50
2022-10-24T01:01:59.531Z,0.30
2022-10-24T01:06:58.524Z,0.43
2022-10-24T01:11:57.803Z,0.40
2022-10-24T01:16:54.198Z,0.50
2022-10-24T01:21:48.058Z,0.47
2022-10-24T01:27:04.373Z,0.40
2022-10-24T01:32:00.593Z,0.40
2022-10-24T01:37:06.173Z,0.40
2022-10-24T01:41:58.553Z,0.50
2022-10-24T01:46:53.991Z,0.68
2022-10-24T01:51:48.636Z,0.40
2022-10-24T01:56:38.294Z,0.40
2022-10-24T02:01:28.312Z,0.40
2022-10-24T02:06:22.219Z,0.50
2022-10-24T02:11:15.131Z,0.70
2022-10-24T02:16:07.276Z,0.50
2022-10-24T02:21:02.072Z,0.52
2022-10-24T02:25:57.297Z,0.60
2022-10-24T02:30:54.741Z,0.40
2022-10-24T02:35:46.647Z,0.50
2022-10-24T02:40:37.655Z,0.35
2022-10-24T02:45:28.430Z,0.40
2022-10-24T02:50:21.678Z,0.40
2022-10-24T02:55:12.273Z,0.40
2022-10-24T03:00:01.986Z,0.40
2022-10-24T03:04:51.738Z,0.40
2022-10-24T03:09:44.084Z,0.30
2022-10-24T03:14:33.775Z,0.50
2022-10-24T03:19:23.380Z,0.30
2022-10-24T03:24:13.042Z,0.60
2022-10-24T03:29:05.193Z,0.30
2022-10-24T03:33:54.775Z,0.30
2022-10-24T03:38:44.418Z,0.70
2022-10-24T03:43:34.076Z,0.50
2022-10-24T03:48:26.410Z,0.40
2022-10-24T03:53:16.122Z,0.23
2022-10-24T03:58:05.853Z,0.30
2022-10-24T04:02:55.447Z,0.35
2022-10-24T04:07:47.984Z,0.30
2022-10-24T04:12:37.928Z,0.30
2022-10-24T04:17:27.591Z,0.30
2022-10-24T04:22:17.363Z,0.30
2022-10-24T04:27:10.161Z,0.50
2022-10-24T04:32:00.296Z,0.40
2022-10-24T04:36:50.537Z,0.30
2022-10-24T04:41:40.320Z,0.25
2022-10-24T04:46:32.750Z,0.25
2022-10-24T04:51:23.150Z,0.30
2022-10-24T04:56:13.031Z,0.47
2022-10-24T05:01:02.990Z,0.22
2022-10-24T05:05:56.158Z,0.38
2022-10-24T05:10:46.338Z,0.30
2022-10-24T05:15:36.228Z,0.30
2022-10-24T05:20:26.279Z,0.37
2022-10-24T05:25:18.651Z,0.30
2022-10-24T05:30:09.856Z,0.20
2022-10-24T05:34:59.460Z,0.50
2022-10-24T05:39:49.123Z,0.30
2022-10-24T05:44:41.591Z,0.30
2022-10-24T05:49:31.348Z,0.60
2022-10-24T05:54:22.000Z,0.38
2022-10-24T05:59:11.747Z,0.40
2022-10-24T06:04:04.033Z,0.40
2022-10-24T06:08:54.531Z,0.30
2022-10-24T06:13:44.398Z,0.30
2022-10-24T06:18:35.406Z,0.40
2022-10-24T06:23:27.867Z,0.40
2022-10-24T06:28:17.961Z,0.40
2022-10-24T06:33:08.510Z,0.38
2022-10-24T06:37:59.266Z,0.60
2022-10-24T06:42:52.158Z,0.50
2022-10-24T06:47:42.793Z,0.63
2022-10-24T06:52:33.795Z,0.50
2022-10-24T06:57:24.045Z,0.60
2022-10-24T07:02:19.612Z,0.40
2022-10-24T07:07:10.145Z,0.60
2022-10-24T07:12:01.438Z,0.70
2022-10-24T07:16:51.780Z,0.40
2022-10-24T07:21:44.952Z,0.50
2022-10-24T07:26:36.272Z,0.60
2022-10-24T07:31:29.807Z,0.40
2022-10-24T07:36:21.554Z,0.47
2022-10-24T07:41:14.911Z,0.40
2022-10-24T07:46:10.457Z,0.40
2022-10-24T07:51:00.818Z,0.40
2022-10-24T07:55:51.437Z,0.50
2022-10-24T08:00:45.542Z,0.40
2022-10-24T08:05:36.776Z,0.33
2022-10-24T08:10:29.842Z,0.30
2022-10-24T08:15:21.743Z,0.55
2022-10-24T08:20:17.974Z,0.40
2022-10-24T08:25:10.345Z,0.30
2022-10-24T08:30:01.806Z,0.60
2022-10-24T08:34:52.143Z,0.30
2022-10-24T08:39:46.516Z,0.40
2022-10-24T08:44:41.717Z,0.60
2022-10-24T08:49:38.333Z,0.30
2022-10-24T08:54:37.228Z,0.60
2022-10-24T08:59:37.494Z,0.45
2022-10-24T09:04:34.282Z,0.80
2022-10-24T09:09:29.919Z,0.40
2022-10-24T09:14:22.073Z,0.30
2022-10-24T09:19:20.551Z,0.40
2022-10-24T09:24:20.507Z,0.40
2022-10-24T09:29:12.382Z,0.60
2022-10-24T09:34:04.517Z,0.30
2022-10-24T09:39:25.621Z,0.50
2022-10-24T09:44:33.709Z,0.60
2022-10-24T09:49:34.884Z,0.40
2022-10-24T09:54:33.104Z,0.50
2022-10-24T09:59:44.779Z,0.70
2022-10-24T10:04:35.263Z,0.30
2022-10-24T10:09:35.570Z,0.50
2022-10-24T10:14:28.355Z,0.40
2022-10-24T10:19:23.900Z,0.57
2022-10-24T10:24:28.926Z,0.28
2022-10-24T10:29:27.692Z,0.32
2022-10-24T10:34:25.431Z,0.30
2022-10-24T10:39:32.730Z,0.60
2022-10-24T10:44:52.491Z,0.40
2022-10-24T10:49:46.390Z,0.50
2022-10-24T10:54:50.423Z,0.68
2022-10-24T10:59:54.433Z,0.75
2022-10-24T11:04:54.874Z,0.60
2022-10-24T11:09:47.627Z,0.40
2022-10-24T11:14:41.184Z,0.90
2022-10-24T11:19:37.330Z,0.40
2022-10-24T11:24:31.782Z,0.40
2022-10-24T11:29:30.536Z,0.40
2022-10-24T11:34:26.485Z,0.70
2022-10-24T11:39:22.258Z,0.77
2022-10-24T11:44:25.965Z,0.65
2022-10-24T11:49:23.230Z,0.60
2022-10-24T11:54:18.780Z,0.40
2022-10-24T11:59:10.878Z,0.50
2022-10-24T12:04:20.752Z,0.40
2022-10-24T12:09:36.827Z,0.60
2022-10-24T12:14:44.922Z,0.60
2022-10-24T12:19:42.187Z,0.50
2022-10-24T12:24:34.918Z,0.50
2022-10-24T12:29:28.863Z,0.60
2022-10-24T12:35:30.038Z,0.50
2022-10-24T12:40:43.906Z,0.85
2022-10-24T12:45:35.767Z,0.60
2022-10-24T12:51:00.828Z,0.40
2022-10-24T13:01:15.829Z,0.35
2022-10-24T13:06:13.220Z,0.30
2022-10-24T13:11:16.860Z,0.40
2022-10-24T13:16:18.710Z,0.40
2022-10-24T13:21:31.297Z,0.40
2022-10-24T13:26:42.479Z,0.50
2022-10-24T13:31:53.495Z,0.50
2022-10-24T13:36:47.073Z,0.40
2022-10-24T13:41:41.641Z,0.50
2022-10-24T13:51:57.013Z,0.60
2022-10-24T13:56:50.406Z,0.50
2022-10-24T14:01:43.847Z,0.40
2022-10-24T14:06:36.987Z,0.47
2022-10-24T14:11:31.647Z,0.40
2022-10-24T14:16:27.305Z,0.50
2022-10-24T14:21:21.934Z,0.30
2022-10-24T14:26:17.806Z,0.60
2022-10-24T14:31:21.985Z,0.75
2022-10-24T14:36:14.730Z,0.35
2022-10-24T14:41:10.496Z,0.50
2022-10-24T14:46:28.451Z,0.40
2022-10-24T14:51:25.562Z,0.40
2022-10-24T14:56:30.071Z,0.30
2022-10-24T15:01:29.497Z,0.30
2022-10-24T15:06:40.659Z,0.30
2022-10-24T15:11:34.466Z,0.52
2022-10-24T15:16:31.834Z,0.50
2022-10-24T15:21:31.301Z,0.50
2022-10-24T15:26:25.181Z,0.60
2022-10-24T15:31:27.741Z,0.60
2022-10-24T15:36:42.264Z,0.70
2022-10-24T15:41:39.093Z,0.45
2022-10-24T15:46:32.799Z,0.80
2022-10-24T15:51:31.058Z,0.73
2022-10-24T15:56:25.149Z,1.08
2022-10-24T16:01:30.548Z,0.50
2022-10-24T16:06:20.897Z,0.70
2022-10-24T16:11:12.650Z,0.77
2022-10-24T16:16:06.991Z,0.70
2022-10-24T16:21:00.410Z,0.80
2022-10-24T16:25:51.827Z,0.63
2022-10-24T16:30:43.845Z,0.77
2022-10-24T16:35:38.812Z,0.85
2022-10-24T16:40:29.830Z,0.70
2022-10-24T16:45:20.966Z,0.80
2022-10-24T16:50:15.263Z,0.60
2022-10-24T16:55:08.660Z,0.70
2022-10-24T16:59:59.256Z,0.73
2022-10-24T17:04:49.741Z,1.10
2022-10-24T17:09:39.716Z,0.80
2022-10-24T17:14:32.460Z,0.75
2022-10-24T17:19:23.036Z,1.10
2022-10-24T17:24:17.855Z,1.05
2022-10-24T17:29:08.944Z,0.77
2022-10-24T17:34:02.870Z,0.93
2022-10-24T17:38:58.405Z,2.13
2022-10-24T17:43:48.616Z,1.38
2022-10-24T17:48:41.149Z,1.05
2022-10-24T17:53:35.231Z,0.95
2022-10-24T17:58:25.381Z,1.20
2022-10-24T18:03:15.783Z,0.75
2022-10-24T18:08:05.668Z,0.80
2022-10-24T18:17:49.265Z,0.90
2022-10-24T18:22:40.807Z,0.70
2022-10-24T18:27:30.723Z,0.70
2022-10-24T18:32:22.986Z,0.70
2022-10-24T18:37:14.301Z,0.70
2022-10-24T18:42:13.777Z,0.70
2022-10-24T18:47:08.919Z,0.70
2022-10-24T18:52:17.886Z,0.80
2022-10-24T18:57:24.571Z,0.50
2022-10-24T19:02:27.779Z,0.63
2022-10-24T19:07:21.211Z,0.73
2022-10-24T19:12:13.085Z,0.77
2022-10-24T19:17:04.619Z,1.10
2022-10-24T19:21:55.754Z,0.73
2022-10-24T19:26:50.098Z,1.13
2022-10-24T19:31:40.380Z,0.90
2022-10-24T19:36:30.862Z,0.80
2022-10-24T19:41:21.134Z,1.00
2022-10-24T19:46:19.839Z,0.60
2022-10-24T19:51:13.293Z,0.50
2022-10-24T19:56:06.676Z,1.00
2022-10-24T20:00:56.567Z,0.70
2022-10-24T20:05:49.595Z,0.80
2022-10-24T20:10:39.736Z,0.70
2022-10-24T20:15:30.469Z,0.70
2022-10-24T20:20:21.250Z,0.80
2022-10-24T20:25:15.730Z,0.70
2022-10-24T20:30:07.116Z,0.80
2022-10-24T20:34:57.888Z,1.13
2022-10-24T20:39:48.723Z,1.40
2022-10-24T20:44:41.550Z,1.08
2022-10-24T20:49:32.327Z,1.20
2022-10-24T20:54:22.680Z,1.17
2022-10-24T20:59:15.102Z,1.00
2022-10-24T21:04:08.142Z,1.00
2022-10-24T21:09:00.568Z,0.70
2022-10-24T21:13:51.441Z,1.00
2022-10-24T21:18:42.161Z,1.05
2022-10-24T21:23:36.684Z,0.80
2022-10-24T21:28:27.411Z,0.98
2022-10-24T21:33:18.133Z,0.70
2022-10-24T21:38:08.114Z,1.17
2022-10-24T21:43:06.613Z,0.52
2022-10-24T21:47:56.913Z,0.60
2022-10-24T21:52:47.867Z,0.50
2022-10-24T21:57:38.337Z,0.55
2022-10-24T22:02:31.426Z,0.60
2022-10-24T22:07:31.893Z,0.70
2022-10-24T22:12:24.282Z,0.60
2022-10-24T22:17:17.069Z,1.17
2022-10-24T22:22:10.189Z,0.75
2022-10-24T22:27:01.888Z,1.02
2022-10-24T22:31:54.257Z,1.00
2022-10-24T22:36:58.775Z,0.98
2022-10-24T22:41:56.267Z,0.70
2022-10-24T22:47:14.115Z,1.10
2022-10-24T22:52:05.228Z,1.15
2022-10-24T22:56:59.242Z,1.35
2022-10-24T23:02:03.028Z,1.50
2022-10-24T23:06:59.052Z,1.50
2022-10-24T23:11:50.117Z,1.80
2022-10-24T23:16:53.122Z,1.58
2022-10-24T23:21:54.662Z,1.65
2022-10-24T23:26:50.822Z,2.20
2022-10-24T23:31:44.659Z,1.85
2022-10-24T23:36:38.786Z,1.42
2022-10-24T23:41:30.112Z,1.63
2022-10-24T23:46:29.516Z,0.98
2022-10-24T23:51:31.550Z,0.90
2022-10-24T23:56:24.515Z,1.10
